sensor_id;sensor_type;location;lat;lon;timestamp;pressure;altitude;pressure_sealevel;temperature;humidity
43683;BME280;29285;52.128;21.060;2024-03-23T00:53:57;99532.59;;;8.52;100.00
43683;BME280;29285;52.128;21.060;2024-03-23T00:58:58;99524.72;;;8.48;100.00
43683;BME280;29285;52.128;21.060;2024-03-23T01:03:59;99514.73;;;8.45;100.00
43683;BME280;29285;52.128;21.060;2024-03-23T01:09:00;99509.06;;;8.43;100.00
43683;BME280;29285;52.128;21.060;2024-03-23T01:14:01;99499.11;;;8.41;100.00
43683;BME280;29285;52.128;21.060;2024-03-23T01:19:02;99496.77;;;8.37;100.00
43683;BME280;29285;52.128;21.060;2024-03-23T01:24:03;99494.75;;;8.34;100.00
43683;BME280;29285;52.128;21.060;2024-03-23T01:29:04;99482.31;;;8.34;100.00
43683;BME280;29285;52.128;21.060;2024-03-23T01:34:06;99476.98;;;8.32;100.00
43683;BME280;29285;52.128;21.060;2024-03-23T01:39:07;99478.90;;;8.31;100.00
43683;BME280;29285;52.128;21.060;2024-03-23T01:44:10;99480.23;;;8.34;100.00
43683;BME280;29285;52.128;21.060;2024-03-23T01:49:12;99477.95;;;8.35;100.00
43683;BME280;29285;52.128;21.060;2024-03-23T01:54:14;99478.84;;;8.43;100.00
43683;BME280;29285;52.128;21.060;2024-03-23T01:59:15;99468.95;;;8.44;100.00
43683;BME280;29285;52.128;21.060;2024-03-23T02:04:16;99465.59;;;8.48;100.00
43683;BME280;29285;52.128;21.060;2024-03-23T02:09:17;99465.44;;;8.46;100.00
43683;BME280;29285;52.128;21.060;2024-03-23T02:14:19;99457.67;;;8.46;100.00
43683;BME280;29285;52.128;21.060;2024-03-23T02:19:20;99454.18;;;8.48;100.00
43683;BME280;29285;52.128;21.060;2024-03-23T02:24:21;99447.65;;;8.46;100.00
43683;BME280;29285;52.128;21.060;2024-03-23T02:29:22;99450.02;;;8.49;100.00
43683;BME280;29285;52.128;21.060;2024-03-23T02:34:23;99445.92;;;8.55;100.00
43683;BME280;29285;52.128;21.060;2024-03-23T02:39:24;99442.72;;;8.59;100.00
43683;BME280;29285;52.128;21.060;2024-03-23T02:44:25;99440.23;;;8.63;100.00
43683;BME280;29285;52.128;21.060;2024-03-23T02:49:26;99437.18;;;8.61;100.00
43683;BME280;29285;52.128;21.060;2024-03-23T02:54:28;99432.20;;;8.59;100.00
43683;BME280;29285;52.128;21.060;2024-03-23T02:59:29;99432.75;;;8.57;100.00
43683;BME280;29285;52.128;21.060;2024-03-23T03:04:31;99429.54;;;8.54;100.00
43683;BME280;29285;52.128;21.060;2024-03-23T03:09:32;99420.07;;;8.51;100.00
43683;BME280;29285;52.128;21.060;2024-03-23T03:14:34;99409.60;;;8.47;100.00
43683;BME280;29285;52.128;21.060;2024-03-23T03:19:35;99399.92;;;8.47;100.00
43683;BME280;29285;52.128;21.060;2024-03-23T03:24:36;99398.10;;;8.43;100.00
43683;BME280;29285;52.128;21.060;2024-03-23T03:29:37;99402.50;;;8.40;100.00
43683;BME280;29285;52.128;21.060;2024-03-23T03:34:38;99407.48;;;8.41;100.00
43683;BME280;29285;52.128;21.060;2024-03-23T03:39:39;99411.77;;;8.43;100.00
43683;BME280;29285;52.128;21.060;2024-03-23T03:44:40;99411.46;;;8.41;100.00
43683;BME280;29285;52.128;21.060;2024-03-23T03:49:41;99410.29;;;8.39;100.00
43683;BME280;29285;52.128;21.060;2024-03-23T03:54:42;99405.93;;;8.41;100.00
43683;BME280;29285;52.128;21.060;2024-03-23T03:59:43;99396.29;;;8.47;100.00
43683;BME280;29285;52.128;21.060;2024-03-23T04:04:44;99400.36;;;8.50;100.00
43683;BME280;29285;52.128;21.060;2024-03-23T04:09:45;99396.29;;;8.47;100.00
43683;BME280;29285;52.128;21.060;2024-03-23T04:14:46;99391.56;;;8.50;100.00
43683;BME280;29285;52.128;21.060;2024-03-23T04:19:47;99395.17;;;8.52;100.00
43683;BME280;29285;52.128;21.060;2024-03-23T04:24:50;99389.80;;;8.52;100.00
43683;BME280;29285;52.128;21.060;2024-03-23T04:29:51;99378.10;;;8.49;100.00
43683;BME280;29285;52.128;21.060;2024-03-23T04:34:52;99371.40;;;8.47;100.00
43683;BME280;29285;52.128;21.060;2024-03-23T04:39:53;99362.50;;;8.43;100.00
43683;BME280;29285;52.128;21.060;2024-03-23T04:44:54;99360.83;;;8.41;100.00
43683;BME280;29285;52.128;21.060;2024-03-23T04:49:55;99357.90;;;8.40;100.00
43683;BME280;29285;52.128;21.060;2024-03-23T04:54:56;99356.00;;;8.40;100.00
43683;BME280;29285;52.128;21.060;2024-03-23T04:59:57;99353.92;;;8.40;100.00
43683;BME280;29285;52.128;21.060;2024-03-23T05:04:58;99350.95;;;8.42;100.00
43683;BME280;29285;52.128;21.060;2024-03-23T05:09:59;99334.82;;;8.44;100.00
43683;BME280;29285;52.128;21.060;2024-03-23T05:15:00;99330.95;;;8.47;100.00
43683;BME280;29285;52.128;21.060;2024-03-23T05:20:02;99344.57;;;8.49;100.00
43683;BME280;29285;52.128;21.060;2024-03-23T05:25:04;99349.77;;;8.48;100.00
43683;BME280;29285;52.128;21.060;2024-03-23T05:30:06;99337.88;;;8.46;100.00
43683;BME280;29285;52.128;21.060;2024-03-23T05:35:09;99324.89;;;8.47;100.00
43683;BME280;29285;52.128;21.060;2024-03-23T05:40:11;99329.76;;;8.47;100.00
43683;BME280;29285;52.128;21.060;2024-03-23T05:45:13;99329.60;;;8.45;100.00
43683;BME280;29285;52.128;21.060;2024-03-23T05:50:14;99328.23;;;8.45;100.00
43683;BME280;29285;52.128;21.060;2024-03-23T05:55:15;99327.16;;;8.47;100.00
43683;BME280;29285;52.128;21.060;2024-03-23T06:00:16;99324.57;;;8.46;100.00
43683;BME280;29285;52.128;21.060;2024-03-23T06:05:17;99321.10;;;8.47;100.00
43683;BME280;29285;52.128;21.060;2024-03-23T06:10:19;99306.52;;;8.49;100.00
43683;BME280;29285;52.128;21.060;2024-03-23T06:15:20;99302.79;;;8.55;100.00
43683;BME280;29285;52.128;21.060;2024-03-23T06:20:21;99303.86;;;8.61;100.00
43683;BME280;29285;52.128;21.060;2024-03-23T06:25:22;99319.05;;;8.62;100.00
43683;BME280;29285;52.128;21.060;2024-03-23T06:30:23;99317.33;;;8.62;100.00
43683;BME280;29285;52.128;21.060;2024-03-23T06:35:24;99300.83;;;8.65;100.00
43683;BME280;29285;52.128;21.060;2024-03-23T06:40:25;99299.18;;;8.68;100.00
43683;BME280;29285;52.128;21.060;2024-03-23T06:45:27;99296.96;;;8.74;100.00
43683;BME280;29285;52.128;21.060;2024-03-23T06:50:28;99291.03;;;8.76;100.00
43683;BME280;29285;52.128;21.060;2024-03-23T06:55:29;99281.23;;;8.82;100.00
43683;BME280;29285;52.128;21.060;2024-03-23T07:00:31;99271.66;;;8.83;100.00
43683;BME280;29285;52.128;21.060;2024-03-23T07:05:33;99271.50;;;8.83;100.00
43683;BME280;29285;52.128;21.060;2024-03-23T07:10:34;99271.77;;;8.85;100.00
43683;BME280;29285;52.128;21.060;2024-03-23T07:15:36;99274.22;;;8.84;100.00
43683;BME280;29285;52.128;21.060;2024-03-23T07:20:37;99266.23;;;8.85;100.00
43683;BME280;29285;52.128;21.060;2024-03-23T07:25:38;99265.86;;;8.87;100.00
43683;BME280;29285;52.128;21.060;2024-03-23T07:30:39;99264.30;;;8.87;100.00
43683;BME280;29285;52.128;21.060;2024-03-23T07:35:40;99254.02;;;8.83;100.00
43683;BME280;29285;52.128;21.060;2024-03-23T07:40:41;99253.20;;;8.95;100.00
43683;BME280;29285;52.128;21.060;2024-03-23T07:45:42;99249.70;;;9.15;100.00
43683;BME280;29285;52.128;21.060;2024-03-23T07:50:43;99246.08;;;9.28;100.00
43683;BME280;29285;52.128;21.060;2024-03-23T07:55:53;99236.04;;;9.47;100.00
43683;BME280;29285;52.128;21.060;2024-03-23T08:00:55;99229.27;;;9.65;100.00
43683;BME280;29285;52.128;21.060;2024-03-23T08:05:56;99217.38;;;9.75;100.00
43683;BME280;29285;52.128;21.060;2024-03-23T08:10:57;99208.25;;;9.84;100.00
43683;BME280;29285;52.128;21.060;2024-03-23T08:15:59;99196.38;;;9.99;100.00
43683;BME280;29285;52.128;21.060;2024-03-23T08:21:02;99196.83;;;10.12;100.00
43683;BME280;29285;52.128;21.060;2024-03-23T08:26:08;99191.65;;;10.17;100.00
43683;BME280;29285;52.128;21.060;2024-03-23T08:31:11;99180.85;;;10.12;100.00
43683;BME280;29285;52.128;21.060;2024-03-23T08:36:12;99178.80;;;10.12;100.00
43683;BME280;29285;52.128;21.060;2024-03-23T08:41:15;99173.50;;;10.15;100.00
43683;BME280;29285;52.128;21.060;2024-03-23T08:46:16;99154.31;;;10.24;100.00
43683;BME280;29285;52.128;21.060;2024-03-23T08:51:18;99147.61;;;10.33;100.00
43683;BME280;29285;52.128;21.060;2024-03-23T08:56:19;99138.11;;;10.48;100.00
43683;BME280;29285;52.128;21.060;2024-03-23T09:01:20;99130.66;;;10.63;100.00
43683;BME280;29285;52.128;21.060;2024-03-23T09:06:21;99126.65;;;10.73;100.00
43683;BME280;29285;52.128;21.060;2024-03-23T09:11:22;99121.02;;;10.70;100.00
43683;BME280;29285;52.128;21.060;2024-03-23T09:16:23;99110.04;;;10.77;100.00
43683;BME280;29285;52.128;21.060;2024-03-23T09:21:24;99098.62;;;10.95;100.00
43683;BME280;29285;52.128;21.060;2024-03-23T09:26:25;99094.89;;;11.11;100.00
43683;BME280;29285;52.128;21.060;2024-03-23T09:31:26;99084.30;;;11.21;100.00
43683;BME280;29285;52.128;21.060;2024-03-23T09:36:28;99074.12;;;11.32;100.00
43683;BME280;29285;52.128;21.060;2024-03-23T09:41:29;99060.92;;;11.46;100.00
43683;BME280;29285;52.128;21.060;2024-03-23T09:46:29;99054.67;;;11.59;100.00
43683;BME280;29285;52.128;21.060;2024-03-23T09:51:38;99050.36;;;11.67;100.00
43683;BME280;29285;52.128;21.060;2024-03-23T09:56:39;99043.77;;;11.66;100.00
43683;BME280;29285;52.128;21.060;2024-03-23T10:01:40;99033.19;;;11.70;100.00
43683;BME280;29285;52.128;21.060;2024-03-23T10:06:41;99027.58;;;11.80;100.00
43683;BME280;29285;52.128;21.060;2024-03-23T10:11:42;99012.20;;;11.95;100.00
43683;BME280;29285;52.128;21.060;2024-03-23T10:16:45;98997.05;;;12.16;100.00
43683;BME280;29285;52.128;21.060;2024-03-23T10:21:52;98969.28;;;12.23;100.00
43683;BME280;29285;52.128;21.060;2024-03-23T10:26:56;98945.15;;;12.53;100.00
43683;BME280;29285;52.128;21.060;2024-03-23T10:32:08;98930.87;;;12.83;100.00
43683;BME280;29285;52.128;21.060;2024-03-23T10:37:09;98918.59;;;13.07;100.00
43683;BME280;29285;52.128;21.060;2024-03-23T10:42:11;98897.77;;;13.20;100.00
43683;BME280;29285;52.128;21.060;2024-03-23T10:47:12;98901.38;;;13.39;100.00
43683;BME280;29285;52.128;21.060;2024-03-23T10:52:13;98884.20;;;13.58;100.00
43683;BME280;29285;52.128;21.060;2024-03-23T10:57:30;98877.40;;;13.76;100.00
43683;BME280;29285;52.128;21.060;2024-03-23T11:02:34;98870.85;;;13.94;100.00
43683;BME280;29285;52.128;21.060;2024-03-23T11:07:35;98850.60;;;14.27;100.00
43683;BME280;29285;52.128;21.060;2024-03-23T11:12:36;98831.84;;;14.45;100.00
43683;BME280;29285;52.128;21.060;2024-03-23T11:17:37;98830.69;;;14.66;100.00
43683;BME280;29285;52.128;21.060;2024-03-23T11:22:45;98829.66;;;15.06;100.00
43683;BME280;29285;52.128;21.060;2024-03-23T11:27:53;98819.38;;;15.32;100.00
43683;BME280;29285;52.128;21.060;2024-03-23T11:32:56;98813.30;;;15.34;100.00
43683;BME280;29285;52.128;21.060;2024-03-23T11:43:07;98791.54;;;15.56;100.00
43683;BME280;29285;52.128;21.060;2024-03-23T11:48:10;98787.39;;;15.73;100.00
43683;BME280;29285;52.128;21.060;2024-03-23T11:58:12;98770.63;;;15.93;100.00
43683;BME280;29285;52.128;21.060;2024-03-23T12:03:14;98756.30;;;16.01;100.00
43683;BME280;29285;52.128;21.060;2024-03-23T12:08:30;98748.59;;;15.98;100.00
43683;BME280;29285;52.128;21.060;2024-03-23T12:13:32;98739.38;;;15.98;100.00
43683;BME280;29285;52.128;21.060;2024-03-23T12:18:33;98733.92;;;15.95;100.00
43683;BME280;29285;52.128;21.060;2024-03-23T12:23:34;98734.97;;;16.23;100.00
43683;BME280;29285;52.128;21.060;2024-03-23T12:28:36;98727.10;;;16.09;100.00
43683;BME280;29285;52.128;21.060;2024-03-23T12:33:38;98713.71;;;15.80;100.00
43683;BME280;29285;52.128;21.060;2024-03-23T12:38:38;98706.85;;;15.52;100.00
43683;BME280;29285;52.128;21.060;2024-03-23T12:43:39;98693.02;;;15.36;100.00
43683;BME280;29285;52.128;21.060;2024-03-23T12:48:40;98681.79;;;15.19;100.00
43683;BME280;29285;52.128;21.060;2024-03-23T12:53:43;98669.39;;;15.14;100.00
43683;BME280;29285;52.128;21.060;2024-03-23T12:58:44;98662.90;;;15.08;100.00
43683;BME280;29285;52.128;21.060;2024-03-23T13:03:48;98652.91;;;15.03;100.00
43683;BME280;29285;52.128;21.060;2024-03-23T13:08:50;98642.19;;;14.99;100.00
43683;BME280;29285;52.128;21.060;2024-03-23T13:13:51;98631.15;;;14.96;100.00
43683;BME280;29285;52.128;21.060;2024-03-23T13:18:52;98624.84;;;14.93;100.00
43683;BME280;29285;52.128;21.060;2024-03-23T13:23:53;98613.89;;;14.93;100.00
43683;BME280;29285;52.128;21.060;2024-03-23T13:28:54;98598.48;;;14.96;100.00
43683;BME280;29285;52.128;21.060;2024-03-23T13:33:55;98588.31;;;15.06;100.00
43683;BME280;29285;52.128;21.060;2024-03-23T13:38:56;98575.55;;;15.12;100.00
43683;BME280;29285;52.128;21.060;2024-03-23T13:43:57;98559.67;;;15.11;100.00
43683;BME280;29285;52.128;21.060;2024-03-23T13:48:58;98548.54;;;15.08;100.00
43683;BME280;29285;52.128;21.060;2024-03-23T13:53:59;98545.56;;;15.03;100.00
43683;BME280;29285;52.128;21.060;2024-03-23T13:59:01;98541.21;;;14.96;100.00
43683;BME280;29285;52.128;21.060;2024-03-23T14:04:04;98537.59;;;14.93;100.00
43683;BME280;29285;52.128;21.060;2024-03-23T14:09:06;98530.88;;;14.89;100.00
43683;BME280;29285;52.128;21.060;2024-03-23T14:14:09;98522.71;;;14.85;100.00
43683;BME280;29285;52.128;21.060;2024-03-23T14:19:11;98509.02;;;14.87;100.00
43683;BME280;29285;52.128;21.060;2024-03-23T14:24:12;98497.08;;;14.87;100.00
43683;BME280;29285;52.128;21.060;2024-03-23T14:29:13;98483.75;;;14.83;100.00
43683;BME280;29285;52.128;21.060;2024-03-23T14:34:15;98472.59;;;14.80;100.00
43683;BME280;29285;52.128;21.060;2024-03-23T14:39:16;98465.53;;;14.76;100.00
43683;BME280;29285;52.128;21.060;2024-03-23T14:44:17;98453.10;;;14.73;100.00
43683;BME280;29285;52.128;21.060;2024-03-23T14:49:18;98445.84;;;14.75;100.00
43683;BME280;29285;52.128;21.060;2024-03-23T14:54:19;98458.07;;;14.66;100.00
43683;BME280;29285;52.128;21.060;2024-03-23T14:59:21;98466.79;;;14.58;100.00
43683;BME280;29285;52.128;21.060;2024-03-23T15:04:22;98471.83;;;14.55;100.00
43683;BME280;29285;52.128;21.060;2024-03-23T15:09:23;98473.83;;;14.51;100.00
43683;BME280;29285;52.128;21.060;2024-03-23T15:14:24;98468.93;;;14.40;100.00
43683;BME280;29285;52.128;21.060;2024-03-23T15:19:25;98473.02;;;14.29;100.00
43683;BME280;29285;52.128;21.060;2024-03-23T15:24:26;98504.77;;;14.21;100.00
43683;BME280;29285;52.128;21.060;2024-03-23T15:29:28;98532.53;;;14.02;100.00
43683;BME280;29285;52.128;21.060;2024-03-23T15:34:29;98564.23;;;13.78;100.00
43683;BME280;29285;52.128;21.060;2024-03-23T15:39:30;98588.27;;;13.31;100.00
43683;BME280;29285;52.128;21.060;2024-03-23T15:44:31;98607.10;;;12.78;100.00
43683;BME280;29285;52.128;21.060;2024-03-23T15:49:32;98632.44;;;12.59;100.00
43683;BME280;29285;52.128;21.060;2024-03-23T15:54:33;98632.25;;;12.39;100.00
43683;BME280;29285;52.128;21.060;2024-03-23T15:59:35;98619.46;;;12.17;100.00
43683;BME280;29285;52.128;21.060;2024-03-23T16:04:37;98577.80;;;11.93;100.00
43683;BME280;29285;52.128;21.060;2024-03-23T16:09:38;98533.42;;;11.73;100.00
43683;BME280;29285;52.128;21.060;2024-03-23T16:14:38;98495.64;;;11.82;100.00
43683;BME280;29285;52.128;21.060;2024-03-23T16:19:39;98494.62;;;11.82;100.00
43683;BME280;29285;52.128;21.060;2024-03-23T16:24:41;98479.28;;;11.83;100.00
43683;BME280;29285;52.128;21.060;2024-03-23T16:29:43;98468.84;;;11.79;100.00
43683;BME280;29285;52.128;21.060;2024-03-23T16:34:44;98481.02;;;11.75;100.00
43683;BME280;29285;52.128;21.060;2024-03-23T16:39:44;98493.13;;;11.59;100.00
43683;BME280;29285;52.128;21.060;2024-03-23T16:44:45;98491.91;;;11.48;100.00
43683;BME280;29285;52.128;21.060;2024-03-23T16:49:46;98482.21;;;11.44;100.00
43683;BME280;29285;52.128;21.060;2024-03-23T16:54:47;98483.34;;;11.39;100.00
43683;BME280;29285;52.128;21.060;2024-03-23T16:59:48;98491.82;;;11.36;100.00
43683;BME280;29285;52.128;21.060;2024-03-23T17:04:49;98505.01;;;11.25;100.00
43683;BME280;29285;52.128;21.060;2024-03-23T17:09:50;98508.22;;;11.05;100.00
43683;BME280;29285;52.128;21.060;2024-03-23T17:14:53;98514.10;;;10.94;100.00
43683;BME280;29285;52.128;21.060;2024-03-23T17:20:01;98508.73;;;10.82;100.00
43683;BME280;29285;52.128;21.060;2024-03-23T17:25:03;98505.75;;;10.76;100.00
43683;BME280;29285;52.128;21.060;2024-03-23T17:30:05;98510.02;;;10.69;100.00
43683;BME280;29285;52.128;21.060;2024-03-23T17:35:06;98512.12;;;10.65;100.00
43683;BME280;29285;52.128;21.060;2024-03-23T17:40:07;98519.61;;;10.60;100.00
43683;BME280;29285;52.128;21.060;2024-03-23T17:45:09;98522.05;;;10.56;100.00
43683;BME280;29285;52.128;21.060;2024-03-23T17:50:12;98536.23;;;10.49;100.00
43683;BME280;29285;52.128;21.060;2024-03-23T17:55:14;98550.66;;;10.44;100.00
43683;BME280;29285;52.128;21.060;2024-03-23T18:00:15;98554.35;;;10.42;100.00
43683;BME280;29285;52.128;21.060;2024-03-23T18:05:16;98565.89;;;10.40;100.00
43683;BME280;29285;52.128;21.060;2024-03-23T18:10:20;98585.61;;;10.37;100.00
43683;BME280;29285;52.128;21.060;2024-03-23T18:15:22;98601.98;;;10.31;100.00
43683;BME280;29285;52.128;21.060;2024-03-23T18:20:23;98609.10;;;10.27;100.00
43683;BME280;29285;52.128;21.060;2024-03-23T18:25:24;98619.20;;;10.21;100.00
43683;BME280;29285;52.128;21.060;2024-03-23T18:30:25;98625.07;;;10.13;100.00
43683;BME280;29285;52.128;21.060;2024-03-23T18:35:26;98632.73;;;10.03;100.00
43683;BME280;29285;52.128;21.060;2024-03-23T18:40:27;98635.61;;;9.93;100.00
43683;BME280;29285;52.128;21.060;2024-03-23T18:45:28;98658.69;;;9.87;100.00
43683;BME280;29285;52.128;21.060;2024-03-23T18:50:28;98690.02;;;9.79;100.00
43683;BME280;29285;52.128;21.060;2024-03-23T18:55:29;98718.02;;;9.53;100.00
43683;BME280;29285;52.128;21.060;2024-03-23T19:00:30;98743.61;;;9.30;100.00
43683;BME280;29285;52.128;21.060;2024-03-23T19:05:31;98765.09;;;9.04;100.00
43683;BME280;29285;52.128;21.060;2024-03-23T19:10:32;98773.92;;;8.83;100.00
43683;BME280;29285;52.128;21.060;2024-03-23T19:15:33;98795.65;;;8.53;100.00
43683;BME280;29285;52.128;21.060;2024-03-23T19:20:34;98809.41;;;8.20;100.00
43683;BME280;29285;52.128;21.060;2024-03-23T19:25:35;98853.28;;;7.98;100.00
43683;BME280;29285;52.128;21.060;2024-03-23T19:30:36;98860.67;;;7.73;100.00
43683;BME280;29285;52.128;21.060;2024-03-23T19:35:37;98894.54;;;7.53;100.00
43683;BME280;29285;52.128;21.060;2024-03-23T19:40:38;98920.86;;;7.30;100.00
43683;BME280;29285;52.128;21.060;2024-03-23T19:45:39;98948.32;;;7.14;100.00
43683;BME280;29285;52.128;21.060;2024-03-23T19:50:41;98958.40;;;6.96;100.00
43683;BME280;29285;52.128;21.060;2024-03-23T19:55:42;98959.45;;;6.80;100.00
43683;BME280;29285;52.128;21.060;2024-03-23T20:00:43;98953.03;;;6.66;100.00
43683;BME280;29285;52.128;21.060;2024-03-23T20:05:44;98972.95;;;6.62;100.00
43683;BME280;29285;52.128;21.060;2024-03-23T20:10:46;98997.91;;;6.55;100.00
43683;BME280;29285;52.128;21.060;2024-03-23T20:15:52;99009.76;;;6.48;100.00
43683;BME280;29285;52.128;21.060;2024-03-23T20:20:54;99001.02;;;6.46;100.00
43683;BME280;29285;52.128;21.060;2024-03-23T20:25:58;99008.11;;;6.36;100.00
43683;BME280;29285;52.128;21.060;2024-03-23T20:31:01;99047.55;;;6.28;100.00
43683;BME280;29285;52.128;21.060;2024-03-23T20:36:02;99043.70;;;6.21;100.00
43683;BME280;29285;52.128;21.060;2024-03-23T20:41:03;99063.80;;;6.25;100.00
43683;BME280;29285;52.128;21.060;2024-03-23T20:46:04;99071.75;;;6.23;100.00
43683;BME280;29285;52.128;21.060;2024-03-23T20:51:05;99055.84;;;6.17;100.00
43683;BME280;29285;52.128;21.060;2024-03-23T20:56:06;99066.86;;;6.17;100.00
43683;BME280;29285;52.128;21.060;2024-03-23T21:01:09;99080.08;;;6.09;100.00
43683;BME280;29285;52.128;21.060;2024-03-23T21:06:10;99075.80;;;6.08;100.00
43683;BME280;29285;52.128;21.060;2024-03-23T21:11:11;99095.25;;;6.08;100.00
43683;BME280;29285;52.128;21.060;2024-03-23T21:16:12;99109.09;;;6.05;100.00
43683;BME280;29285;52.128;21.060;2024-03-23T21:21:13;99093.45;;;6.02;100.00
43683;BME280;29285;52.128;21.060;2024-03-23T21:26:14;99091.72;;;6.03;100.00
43683;BME280;29285;52.128;21.060;2024-03-23T21:31:15;99093.92;;;6.05;100.00
43683;BME280;29285;52.128;21.060;2024-03-23T21:36:16;99120.98;;;6.02;100.00
43683;BME280;29285;52.128;21.060;2024-03-23T21:41:17;99116.38;;;5.99;100.00
43683;BME280;29285;52.128;21.060;2024-03-23T21:46:17;99099.49;;;6.00;100.00
43683;BME280;29285;52.128;21.060;2024-03-23T21:51:18;99091.02;;;6.04;100.00
43683;BME280;29285;52.128;21.060;2024-03-23T21:56:19;99087.09;;;6.01;100.00
43683;BME280;29285;52.128;21.060;2024-03-23T22:01:20;99098.65;;;5.99;100.00
43683;BME280;29285;52.128;21.060;2024-03-23T22:06:21;99106.77;;;5.97;100.00
43683;BME280;29285;52.128;21.060;2024-03-23T22:11:22;99109.21;;;6.27;100.00
43683;BME280;29285;52.128;21.060;2024-03-23T22:16:23;99114.55;;;6.56;100.00
43683;BME280;29285;52.128;21.060;2024-03-23T22:21:24;99117.28;;;6.48;100.00
43683;BME280;29285;52.128;21.060;2024-03-23T22:26:25;99116.73;;;6.40;100.00
43683;BME280;29285;52.128;21.060;2024-03-23T22:31:27;99112.00;;;6.35;100.00
43683;BME280;29285;52.128;21.060;2024-03-23T22:36:29;99123.37;;;6.26;100.00
43683;BME280;29285;52.128;21.060;2024-03-23T22:41:30;99122.95;;;6.21;100.00
43683;BME280;29285;52.128;21.060;2024-03-23T22:46:31;99116.89;;;6.12;100.00
43683;BME280;29285;52.128;21.060;2024-03-23T22:51:32;99112.31;;;6.07;100.00
43683;BME280;29285;52.128;21.060;2024-03-23T22:56:33;99108.55;;;6.06;100.00
43683;BME280;29285;52.128;21.060;2024-03-23T23:01:34;99120.21;;;6.08;100.00
43683;BME280;29285;52.128;21.060;2024-03-23T23:06:35;99123.63;;;6.11;100.00
43683;BME280;29285;52.128;21.060;2024-03-23T23:11:37;99127.89;;;6.13;100.00
43683;BME280;29285;52.128;21.060;2024-03-23T23:16:38;99144.15;;;6.09;100.00
43683;BME280;29285;52.128;21.060;2024-03-23T23:21:39;99138.17;;;6.05;100.00
43683;BME280;29285;52.128;21.060;2024-03-23T23:26:40;99133.78;;;5.98;100.00
43683;BME280;29285;52.128;21.060;2024-03-23T23:31:41;99122.99;;;5.96;100.00
43683;BME280;29285;52.128;21.060;2024-03-23T23:36:48;99121.99;;;5.93;100.00
43683;BME280;29285;52.128;21.060;2024-03-23T23:41:48;99124.83;;;5.88;100.00
43683;BME280;29285;52.128;21.060;2024-03-23T23:46:49;99134.88;;;5.84;100.00
43683;BME280;29285;52.128;21.060;2024-03-23T23:51:50;99135.80;;;5.80;100.00
43683;BME280;29285;52.128;21.060;2024-03-23T23:56:51;99145.08;;;5.81;100.00
